Time;durP1;ratioP1;P1;durP2;ratioP2;P2;SDS_P1;SDS_P2;PMS_P1;PMS_P2;Temp;Humidity;BMP_temperature;BMP_pressure;BME280_temperature;BME280_humidity;BME280_pressure;Samples;Min_cycle;Max_cycle;Signal;HPM_P1;HPM_P2
2023/12/06 00:01:48;;;;;;;3.15;1.83;;;17.30;56.70;;;;;;6103016;23;20148;-82
2023/12/06 00:04:14;;;;;;;5.50;2.30;;;17.30;56.50;;;;;;6128870;23;20214;-82
2023/12/06 00:06:39;;;;;;;3.38;1.80;;;17.30;56.90;;;;;;6128492;23;20158;-82
2023/12/06 00:09:05;;;;;;;3.88;2.15;;;17.30;56.70;;;;;;6153674;23;20132;-83
2023/12/06 00:11:34;;;;;;;6.68;2.15;;;17.30;56.50;;;;;;6128470;23;20538;-82
2023/12/06 00:14:00;;;;;;;3.80;2.10;;;17.30;56.60;;;;;;6079546;23;20191;-82
2023/12/06 00:18:51;;;;;;;4.57;1.88;;;17.30;56.70;;;;;;6183570;23;20642;-82
2023/12/06 00:21:17;;;;;;;3.25;2.00;;;17.30;56.70;;;;;;6185132;23;20864;-81
2023/12/06 00:23:43;;;;;;;6.63;2.22;;;17.30;56.60;;;;;;6186170;23;20139;-82
2023/12/06 00:26:09;;;;;;;4.07;1.80;;;17.30;56.70;;;;;;6185542;23;20209;-82
2023/12/06 00:28:34;;;;;;;5.43;2.03;;;17.30;56.50;;;;;;6159627;23;20828;-81
2023/12/06 00:31:00;;;;;;;4.63;2.17;;;17.30;56.40;;;;;;6185438;23;20139;-81
2023/12/06 00:33:28;;;;;;;3.33;1.90;;;17.30;56.40;;;;;;6159315;23;20163;-82
2023/12/06 00:35:53;;;;;;;3.33;1.80;;;17.30;56.60;;;;;;6185091;23;20167;-85
2023/12/06 00:38:19;;;;;;;5.20;1.95;;;17.30;56.50;;;;;;6158019;23;20139;-82
2023/12/06 00:40:45;;;;;;;5.93;2.00;;;17.30;56.50;;;;;;6184786;23;20210;-82
2023/12/06 00:43:11;;;;;;;3.85;1.90;;;17.30;56.50;;;;;;6157687;23;20465;-82
2023/12/06 00:45:37;;;;;;;4.70;2.13;;;17.30;56.50;;;;;;6156644;23;20142;-81
2023/12/06 00:48:05;;;;;;;7.68;2.30;;;17.30;56.40;;;;;;6183459;23;20189;-82
2023/12/06 00:50:30;;;;;;;5.07;2.35;;;17.30;56.40;;;;;;6182520;23;20135;-82
2023/12/06 00:52:56;;;;;;;4.95;1.92;;;17.30;56.70;;;;;;6183237;23;20249;-82
2023/12/06 00:55:22;;;;;;;6.00;2.10;;;17.30;56.40;;;;;;6151862;23;20208;-82
2023/12/06 00:57:48;;;;;;;5.53;2.00;;;17.20;56.40;;;;;;6154265;23;20630;-82
2023/12/06 01:00:14;;;;;;;5.13;2.30;;;17.20;56.50;;;;;;6128768;23;20182;-82
2023/12/06 01:02:40;;;;;;;4.72;2.10;;;17.20;56.50;;;;;;6130292;23;20486;-82
2023/12/06 01:05:06;;;;;;;4.93;2.13;;;17.30;56.40;;;;;;6154375;23;20589;-81
2023/12/06 01:07:32;;;;;;;5.07;2.10;;;17.20;56.30;;;;;;6129642;23;20143;-82
2023/12/06 01:09:58;;;;;;;6.35;2.15;;;17.20;56.40;;;;;;6153062;23;20135;-82
2023/12/06 01:12:23;;;;;;;4.15;2.15;;;17.20;56.40;;;;;;6154172;23;20136;-82
2023/12/06 01:14:49;;;;;;;4.35;2.08;;;17.30;57.00;;;;;;6152374;23;20223;-82
2023/12/06 01:17:15;;;;;;;4.20;2.08;;;17.20;56.40;;;;;;6152940;23;20128;-83
2023/12/06 01:19:41;;;;;;;4.57;1.95;;;17.20;56.60;;;;;;6154602;23;20143;-82
2023/12/06 01:22:06;;;;;;;4.50;2.00;;;17.20;56.50;;;;;;6104023;23;20509;-82
2023/12/06 01:24:32;;;;;;;5.63;2.20;;;17.20;56.40;;;;;;6151193;23;20147;-83
2023/12/06 01:26:58;;;;;;;3.75;2.10;;;17.20;56.50;;;;;;6104626;23;20606;-82
2023/12/06 01:29:23;;;;;;;4.93;2.00;;;17.20;56.60;;;;;;6154753;23;20495;-82
2023/12/06 01:31:49;;;;;;;5.18;2.05;;;17.20;56.20;;;;;;6155622;23;20555;-82
2023/12/06 01:34:15;;;;;;;5.28;2.10;;;17.20;56.30;;;;;;6151106;23;20221;-81
2023/12/06 01:36:42;;;;;;;5.28;2.40;;;17.20;56.40;;;;;;6155740;23;20136;-82
2023/12/06 01:39:08;;;;;;;5.32;2.25;;;17.20;56.50;;;;;;6152906;23;20143;-83
2023/12/06 01:41:34;;;;;;;5.78;2.22;;;17.10;56.20;;;;;;6104304;23;20143;-81
2023/12/06 01:44:00;;;;;;;3.85;2.22;;;17.20;56.20;;;;;;6155942;23;20159;-82
2023/12/06 01:46:26;;;;;;;4.93;2.00;;;17.30;56.20;;;;;;6154187;23;20574;-82
2023/12/06 01:48:52;;;;;;;4.80;2.00;;;17.20;56.30;;;;;;6155571;23;20128;-82
2023/12/06 01:51:18;;;;;;;5.05;2.20;;;17.20;56.20;;;;;;6105113;23;20522;-81
2023/12/06 01:53:43;;;;;;;4.65;2.15;;;17.20;56.40;;;;;;6104461;23;20201;-81
2023/12/06 01:56:09;;;;;;;5.03;2.05;;;17.10;56.20;;;;;;6102581;23;20151;-81
2023/12/06 01:58:36;;;;;;;4.88;1.98;;;17.10;56.20;;;;;;6102586;23;20143;-81
2023/12/06 02:01:03;;;;;;;3.83;2.20;;;17.20;56.20;;;;;;6154567;23;20140;-81
2023/12/06 02:03:29;;;;;;;5.93;2.00;;;17.10;56.30;;;;;;6151252;23;20154;-82
2023/12/06 02:05:55;;;;;;;3.03;1.98;;;17.10;56.40;;;;;;6127851;23;20144;-82
2023/12/06 02:08:20;;;;;;;3.17;2.08;;;17.20;56.00;;;;;;6103165;23;20243;-82
2023/12/06 02:10:46;;;;;;;3.15;2.00;;;17.10;56.20;;;;;;6128213;23;20162;-82
2023/12/06 02:13:12;;;;;;;3.75;2.10;;;17.10;56.30;;;;;;6103684;23;20190;-82
2023/12/06 02:15:37;;;;;;;4.35;2.03;;;17.10;56.30;;;;;;6128521;23;20142;-81
2023/12/06 02:18:04;;;;;;;4.13;2.17;;;17.10;56.10;;;;;;6128049;23;20563;-81
2023/12/06 02:20:29;;;;;;;3.63;2.13;;;17.10;56.30;;;;;;6152293;23;20206;-81
2023/12/06 02:22:55;;;;;;;4.53;2.25;;;17.10;55.90;;;;;;6152949;23;20171;-82
2023/12/06 02:25:21;;;;;;;4.32;2.22;;;17.10;56.20;;;;;;6152314;23;20586;-81
2023/12/06 02:27:47;;;;;;;4.82;2.20;;;17.10;56.10;;;;;;6152785;23;20132;-81
2023/12/06 02:30:14;;;;;;;4.22;2.28;;;17.10;56.20;;;;;;6104201;23;20144;-81
2023/12/06 02:32:39;;;;;;;3.88;2.13;;;17.10;56.10;;;;;;6154070;23;20166;-85
2023/12/06 02:35:19;;;;;;;5.35;1.90;;;17.10;56.10;;;;;;6127484;23;20191;-82
2023/12/06 02:37:46;;;;;;;5.57;2.13;;;17.10;56.10;;;;;;6152692;23;20131;-82
2023/12/06 02:40:11;;;;;;;4.57;2.17;;;17.10;56.20;;;;;;6126232;23;20132;-81
2023/12/06 02:42:37;;;;;;;6.57;2.35;;;17.00;56.10;;;;;;6127524;23;20146;-82
2023/12/06 02:45:03;;;;;;;4.68;2.25;;;17.10;56.00;;;;;;6104072;23;20519;-81
2023/12/06 02:47:29;;;;;;;6.50;2.22;;;17.10;56.10;;;;;;6127247;23;20144;-81
2023/12/06 02:49:56;;;;;;;3.60;2.08;;;17.10;56.30;;;;;;6102646;23;20136;-82
2023/12/06 02:52:23;;;;;;;5.05;2.38;;;17.00;56.20;;;;;;6154893;23;20135;-82
2023/12/06 02:54:48;;;;;;;5.72;2.67;;;17.00;55.90;;;;;;6052830;23;20152;-82
2023/12/06 02:57:14;;;;;;;4.07;2.40;;;17.10;56.10;;;;;;6127454;23;20138;-82
2023/12/06 02:59:40;;;;;;;4.80;1.98;;;17.10;56.00;;;;;;6153393;23;20132;-82
2023/12/06 03:02:05;;;;;;;5.13;2.30;;;17.00;55.80;;;;;;6102619;23;20475;-82
2023/12/06 03:04:31;;;;;;;5.03;2.20;;;17.10;55.80;;;;;;6101802;23;20140;-82
2023/12/06 03:06:57;;;;;;;3.78;2.20;;;17.10;55.70;;;;;;6103226;23;20143;-82
2023/12/06 03:11:48;;;;;;;3.65;1.90;;;17.10;55.80;;;;;;6149454;23;20778;-81
2023/12/06 03:14:14;;;;;;;3.60;2.03;;;17.00;55.80;;;;;;6126045;23;20190;-82
2023/12/06 03:16:40;;;;;;;4.32;2.10;;;17.10;55.80;;;;;;6156254;23;20138;-82
2023/12/06 03:19:06;;;;;;;3.58;2.00;;;17.00;55.80;;;;;;6182369;23;20142;-82
2023/12/06 03:21:31;;;;;;;4.32;2.20;;;17.00;55.70;;;;;;6132568;23;20154;-81
2023/12/06 03:23:57;;;;;;;3.28;1.92;;;17.00;55.80;;;;;;6182303;23;20138;-81
2023/12/06 03:26:23;;;;;;;3.67;2.15;;;17.00;55.80;;;;;;6108549;23;20143;-81
2023/12/06 03:28:49;;;;;;;3.90;2.08;;;17.00;55.90;;;;;;6150040;23;20680;-81
2023/12/06 03:31:14;;;;;;;3.30;1.95;;;17.00;55.80;;;;;;6181693;23;20669;-81
2023/12/06 03:33:40;;;;;;;3.17;1.88;;;17.00;55.90;;;;;;6132308;23;20182;-82
2023/12/06 03:36:09;;;;;;;4.25;2.42;;;17.00;55.80;;;;;;6184389;23;20142;-82
2023/12/06 03:38:36;;;;;;;3.85;2.38;;;17.10;55.80;;;;;;6109317;23;20568;-82
2023/12/06 03:41:02;;;;;;;2.95;2.00;;;17.00;55.80;;;;;;6156468;23;20208;-82
2023/12/06 03:43:28;;;;;;;3.83;2.20;;;17.00;55.80;;;;;;6183898;23;20520;-82
2023/12/06 03:45:53;;;;;;;5.32;2.25;;;17.00;55.80;;;;;;6156633;23;20633;-82
2023/12/06 03:48:19;;;;;;;3.70;2.15;;;17.00;55.60;;;;;;6184728;23;20131;-82
2023/12/06 03:50:45;;;;;;;4.22;2.30;;;17.00;55.70;;;;;;6157656;23;20131;-81
2023/12/06 03:53:11;;;;;;;2.72;2.10;;;17.00;55.80;;;;;;6184246;23;20597;-82
2023/12/06 03:58:02;;;;;;;5.53;2.50;;;17.00;55.60;;;;;;6152576;23;20203;-82
2023/12/06 04:00:32;;;;;;;5.53;2.40;;;17.00;55.80;;;;;;6153544;23;20143;-83
2023/12/06 04:02:59;;;;;;;3.78;2.10;;;17.00;55.80;;;;;;6154573;23;20544;-81
2023/12/06 04:05:24;;;;;;;4.25;2.20;;;16.90;55.50;;;;;;6107255;23;20151;-82
2023/12/06 04:07:50;;;;;;;3.30;2.17;;;16.90;55.60;;;;;;6107930;23;20147;-82
2023/12/06 04:10:16;;;;;;;3.38;2.22;;;17.00;55.80;;;;;;6156405;23;20578;-81
2023/12/06 04:12:41;;;;;;;4.60;2.28;;;17.00;55.50;;;;;;6155876;23;20315;-82
2023/12/06 04:15:08;;;;;;;3.47;2.38;;;17.00;55.60;;;;;;6131319;23;20559;-83
2023/12/06 04:17:34;;;;;;;3.78;2.70;;;17.00;55.40;;;;;;6156355;23;20613;-82
2023/12/06 04:19:59;;;;;;;3.63;2.10;;;17.00;55.50;;;;;;6156523;23;20139;-82
2023/12/06 04:22:25;;;;;;;3.72;2.00;;;16.90;55.50;;;;;;6130903;23;20153;-81
2023/12/06 04:24:53;;;;;;;4.05;2.40;;;17.00;55.20;;;;;;6107698;23;20150;-81
2023/12/06 04:27:18;;;;;;;3.75;2.22;;;17.00;55.50;;;;;;6130783;23;20139;-82
2023/12/06 04:32:10;;;;;;;4.72;2.33;;;16.90;55.50;;;;;;6152785;23;20211;-81
2023/12/06 04:34:36;;;;;;;3.63;2.25;;;17.00;55.40;;;;;;6102041;23;20176;-81
2023/12/06 04:37:02;;;;;;;3.45;2.20;;;16.90;55.30;;;;;;6126089;23;20143;-82
2023/12/06 04:39:28;;;;;;;4.30;2.47;;;16.90;55.50;;;;;;6126897;23;20147;-82
2023/12/06 04:41:54;;;;;;;5.78;2.30;;;16.90;55.40;;;;;;6102619;23;20154;-81
2023/12/06 04:44:19;;;;;;;4.50;1.98;;;17.00;55.50;;;;;;6128482;23;20139;-82
2023/12/06 04:46:45;;;;;;;3.60;2.30;;;16.90;55.50;;;;;;6144974;23;20273;-82
2023/12/06 04:49:11;;;;;;;3.28;2.10;;;17.00;55.30;;;;;;6127853;23;20132;-82
2023/12/06 04:51:37;;;;;;;4.53;2.30;;;16.90;55.40;;;;;;6152428;23;20605;-81
2023/12/06 04:54:06;;;;;;;5.97;2.50;;;16.80;55.20;;;;;;6152907;23;20167;-81
2023/12/06 04:56:31;;;;;;;3.17;2.30;;;16.90;55.30;;;;;;6125269;23;20159;-81
2023/12/06 04:58:57;;;;;;;3.85;2.17;;;16.90;55.10;;;;;;6115176;23;20291;-81
2023/12/06 05:01:23;;;;;;;3.80;2.30;;;16.90;55.20;;;;;;6121631;23;20144;-81
2023/12/06 05:03:48;;;;;;;4.13;2.22;;;16.90;55.20;;;;;;6122468;23;20748;-82
2023/12/06 05:06:14;;;;;;;3.42;1.90;;;16.90;55.30;;;;;;6126315;23;20575;-82
2023/12/06 05:08:40;;;;;;;3.03;2.13;;;16.90;55.30;;;;;;6125192;23;20137;-82
2023/12/06 05:11:06;;;;;;;3.40;2.38;;;16.90;55.10;;;;;;6125867;23;20163;-82
2023/12/06 05:13:31;;;;;;;3.17;2.30;;;16.90;55.30;;;;;;6099578;23;20251;-81
2023/12/06 05:15:57;;;;;;;2.92;1.90;;;16.90;55.30;;;;;;6125440;23;20145;-82
2023/12/06 05:18:24;;;;;;;3.30;2.10;;;16.90;55.30;;;;;;6126506;23;20144;-81
2023/12/06 05:20:51;;;;;;;4.22;2.30;;;16.90;55.10;;;;;;6100475;23;20137;-80
2023/12/06 05:23:19;;;;;;;4.15;2.15;;;16.90;55.10;;;;;;6027992;23;20614;-82
2023/12/06 05:28:17;;;;;;;3.97;2.28;;;16.90;55.20;;;;;;6097843;23;20188;-81
2023/12/06 05:30:43;;;;;;;4.53;2.05;;;16.90;54.90;;;;;;6093181;23;20464;-81
2023/12/06 05:33:09;;;;;;;3.17;2.10;;;16.90;55.10;;;;;;6046335;23;20191;-82
2023/12/06 05:35:34;;;;;;;4.43;2.22;;;16.80;55.10;;;;;;6048085;23;20161;-82
2023/12/06 05:38:00;;;;;;;3.55;2.00;;;16.90;55.10;;;;;;6095822;23;20188;-82
2023/12/06 05:40:26;;;;;;;3.42;2.20;;;16.80;55.00;;;;;;6096232;23;20553;-81
2023/12/06 05:45:17;;;;;;;2.95;2.10;;;16.80;55.10;;;;;;6098992;23;20200;-82
2023/12/06 05:47:43;;;;;;;5.50;2.15;;;16.90;55.20;;;;;;6126485;23;20658;-82
2023/12/06 05:50:11;;;;;;;5.22;2.30;;;16.90;55.10;;;;;;6126226;23;20664;-82
2023/12/06 05:52:37;;;;;;;3.42;2.13;;;16.80;55.00;;;;;;6126791;23;20129;-82
2023/12/06 05:55:03;;;;;;;2.70;2.03;;;16.90;54.80;;;;;;6099121;23;20140;-80
2023/12/06 05:57:29;;;;;;;3.97;2.22;;;16.90;54.90;;;;;;6050898;23;20148;-82
2023/12/06 05:59:55;;;;;;;3.75;2.40;;;16.90;54.90;;;;;;6050210;23;20494;-81
2023/12/06 06:02:21;;;;;;;3.10;2.10;;;16.80;54.90;;;;;;6051289;23;20155;-82
2023/12/06 06:04:46;;;;;;;5.22;2.13;;;16.90;55.00;;;;;;6099291;23;20850;-82
2023/12/06 06:07:12;;;;;;;3.53;2.20;;;16.90;54.80;;;;;;6098633;23;20574;-82
2023/12/06 06:09:39;;;;;;;4.03;2.20;;;16.80;54.80;;;;;;6098180;23;20136;-81
2023/12/06 06:12:07;;;;;;;4.60;2.20;;;16.80;54.90;;;;;;6003170;23;20178;-81
2023/12/06 06:14:33;;;;;;;3.63;2.30;;;16.80;54.80;;;;;;6051781;23;20221;-82
2023/12/06 06:19:25;;;;;;;3.92;2.10;;;16.80;54.80;;;;;;6182388;23;20582;-81
2023/12/06 06:21:51;;;;;;;3.65;2.10;;;16.90;54.60;;;;;;6185951;23;20570;-81
2023/12/06 06:24:17;;;;;;;4.15;2.08;;;16.80;54.70;;;;;;6133643;23;20154;-81
2023/12/06 06:26:43;;;;;;;4.75;2.25;;;16.80;54.70;;;;;;6147347;23;20128;-82
2023/12/06 06:29:09;;;;;;;4.18;2.20;;;16.80;54.80;;;;;;6156069;23;20553;-82
2023/12/06 06:31:35;;;;;;;3.20;2.30;;;16.80;54.40;;;;;;6132312;23;20184;-82
2023/12/06 06:34:02;;;;;;;3.35;1.95;;;16.80;54.80;;;;;;6159257;23;20179;-82
2023/12/06 06:36:28;;;;;;;2.88;2.03;;;16.80;54.80;;;;;;6132318;23;20557;-82
2023/12/06 06:38:55;;;;;;;3.20;2.00;;;16.80;54.70;;;;;;6145231;23;20533;-82
2023/12/06 06:41:21;;;;;;;3.03;2.22;;;16.90;54.60;;;;;;6185646;23;20252;-82
2023/12/06 06:46:17;;;;;;;3.20;1.88;;;16.80;54.60;;;;;;6154367;23;20551;-82
2023/12/06 06:48:43;;;;;;;4.53;2.35;;;16.80;54.40;;;;;;6078029;23;20147;-82
2023/12/06 06:51:09;;;;;;;3.13;2.30;;;16.80;54.60;;;;;;6103348;23;20525;-84
2023/12/06 06:53:35;;;;;;;4.60;2.28;;;16.90;54.70;;;;;;6103465;23;20186;-81
2023/12/06 06:56:02;;;;;;;4.68;2.55;;;16.90;54.70;;;;;;6152824;23;20175;-81
2023/12/06 06:58:28;;;;;;;3.75;2.22;;;16.80;54.70;;;;;;6079092;23;20139;-82
2023/12/06 07:00:54;;;;;;;3.03;2.13;;;16.80;54.40;;;;;;6103646;23;20155;-82
2023/12/06 07:03:21;;;;;;;4.90;2.35;;;16.80;54.50;;;;;;6155339;23;20144;-81
2023/12/06 07:05:51;;;;;;;4.20;2.33;;;16.80;54.40;;;;;;6104980;23;20147;-81
2023/12/06 07:11:39;;;;;;;3.60;2.10;;;16.90;54.10;;;;;;6154928;23;20239;-82
2023/12/06 07:14:04;;;;;;;2.47;2.08;;;16.90;54.00;;;;;;6129774;23;20222;-82
2023/12/06 07:16:30;;;;;;;4.22;2.08;;;16.90;53.00;;;;;;6104998;23;20158;-82
2023/12/06 07:18:57;;;;;;;3.47;2.08;;;17.00;53.40;;;;;;6081104;23;20534;-82
2023/12/06 07:21:23;;;;;;;2.92;2.03;;;17.00;53.50;;;;;;6079221;23;20143;-85
2023/12/06 07:23:57;;;;;;;3.20;2.28;;;16.90;53.20;;;;;;6107273;23;20147;-86
2023/12/06 07:26:29;;;;;;;5.68;2.38;;;17.00;53.70;;;;;;6105178;23;20143;-87
2023/12/06 07:29:12;;;;;;;5.68;2.40;;;16.90;53.10;;;;;;6108771;23;20132;-86
2023/12/06 07:32:16;;;;;;;3.40;2.30;;;17.00;52.00;;;;;;6106320;23;20136;-85
2023/12/06 07:35:07;;;;;;;2.95;2.10;;;17.10;52.10;;;;;;6089134;23;20183;-86
2023/12/06 07:37:38;;;;;;;3.45;2.25;;;17.10;52.70;;;;;;6127831;23;20147;-83
2023/12/06 07:40:07;;;;;;;5.57;2.53;;;17.10;52.10;;;;;;6082445;23;20574;-86
2023/12/06 07:43:18;;;;;;;2.10;1.90;;;17.10;52.40;;;;;;6107437;23;20147;-85
2023/12/06 07:46:13;;;;;;;4.00;2.03;;;17.10;52.40;;;;;;6020186;23;20199;-85
2023/12/06 07:49:19;;;;;;;3.47;2.13;;;17.00;52.30;;;;;;6078170;23;20163;-85
2023/12/06 07:52:44;;;;;;;;;;;;;;;;;;;;;
2023/12/06 07:55:43;;;;;;;;;;;;;;;;;;;;;
2023/12/06 07:58:29;;;;;;;;;;;;;;;;;;;;;
2023/12/06 08:01:49;;;;;;;;;;;;;;;;;;;;;
2023/12/06 08:05:02;;;;;;;3.42;1.95;;;17.10;52.10;;;;;;5750260;24;20200;-85
2023/12/06 08:14:29;;;;;;;3.90;2.30;;;17.10;52.10;;;;;;5685375;25;20238;-85
2023/12/06 08:31:21;;;;;;;4.00;2.20;;;17.30;51.90;;;;;;5553535;25;20583;-85
2023/12/06 08:52:25;;;;;;;3.38;2.10;;;17.40;50.90;;;;;;5492178;26;20506;-85
2023/12/06 08:55:46;;;;;;;5.18;2.35;;;17.40;51.50;;;;;;5539226;25;20224;-85
2023/12/06 09:32:09;;;;;;;8.43;2.58;;;17.50;51.20;;;;;;6161367;23;20462;-86
2023/12/06 09:35:08;;;;;;;6.88;2.03;;;17.50;51.70;;;;;;6115795;23;20202;-86
2023/12/06 09:37:49;;;;;;;;;;;;;;;;;;;;;
2023/12/06 09:40:31;;;;;;;7.22;2.42;;;17.50;51.00;;;;;;6047294;23;20273;-89
2023/12/06 09:43:03;;;;;;;5.63;2.15;;;17.50;50.80;;;;;;5991257;23;20162;-86
2023/12/06 09:45:36;;;;;;;5.80;2.20;;;17.50;51.50;;;;;;5984085;24;20517;-86
2023/12/06 09:52:11;;;;;;;5.05;2.00;;;17.60;49.80;;;;;;5810307;24;20263;-87
2023/12/06 09:55:05;;;;;;;;;;;;;;;;;;;;;
2023/12/06 09:57:45;;;;;;;9.18;2.65;;;17.70;50.80;;;;;;5826368;24;20612;-85
2023/12/06 10:00:46;;;;;;;10.95;2.83;;;17.70;51.10;;;;;;5797329;24;20190;-87
2023/12/06 10:46:32;;;;;;;14.02;2.92;;;17.80;50.70;;;;;;6145028;23;20206;-87
2023/12/06 10:49:00;;;;;;;18.27;3.38;;;17.70;51.00;;;;;;6055808;23;20149;-87
2023/12/06 10:51:28;;;;;;;15.32;3.30;;;17.70;50.80;;;;;;6022875;23;20149;-87
2023/12/06 10:53:54;;;;;;;14.07;3.13;;;17.70;51.00;;;;;;6048251;23;20192;-86
2023/12/06 10:56:25;;;;;;;22.70;3.55;;;17.80;50.50;;;;;;6046118;23;20150;-86
2023/12/06 10:58:57;;;;;;;19.65;2.97;;;17.80;50.20;;;;;;6049001;23;20497;-86
2023/12/06 11:01:31;;;;;;;13.55;3.10;;;17.80;50.50;;;;;;5999955;23;20157;-87
2023/12/06 11:04:01;;;;;;;14.13;3.00;;;17.80;50.90;;;;;;5977603;23;20171;-87
2023/12/06 11:06:42;;;;;;;19.58;3.03;;;17.80;51.20;;;;;;6047810;23;20583;-87
2023/12/06 11:09:24;;;;;;;15.43;3.20;;;17.70;51.00;;;;;;6050090;23;20146;-87
2023/12/06 11:12:30;;;;;;;8.30;2.88;;;17.80;50.70;;;;;;6050209;23;20153;-86
2023/12/06 11:15:26;;;;;;;13.65;3.00;;;17.80;50.50;;;;;;6072130;23;20593;-87
2023/12/06 11:18:13;;;;;;;17.23;3.38;;;17.80;50.70;;;;;;6043544;23;20150;-87
2023/12/06 11:20:44;;;;;;;16.17;2.97;;;17.80;51.10;;;;;;5970432;23;20214;-86
2023/12/06 11:23:26;;;;;;;13.63;3.30;;;17.70;50.90;;;;;;5992562;23;20584;-87
2023/12/06 11:26:00;;;;;;;11.48;2.80;;;17.80;50.30;;;;;;5930288;24;20252;-87
2023/12/06 11:28:42;;;;;;;13.95;2.92;;;17.80;50.70;;;;;;5933979;24;20164;-88
2023/12/06 11:31:17;;;;;;;11.80;2.97;;;17.80;50.70;;;;;;5932528;24;20160;-88
2023/12/06 11:34:04;;;;;;;11.32;2.90;;;17.80;50.00;;;;;;5977618;23;20192;-87
2023/12/06 11:36:37;;;;;;;10.60;2.63;;;17.80;50.60;;;;;;5956248;24;20156;-88
2023/12/06 11:39:21;;;;;;;7.85;2.42;;;17.80;50.60;;;;;;5932388;24;20156;-87
2023/12/06 11:41:56;;;;;;;10.20;2.90;;;17.80;50.90;;;;;;5932988;24;20160;-87
2023/12/06 11:44:28;;;;;;;11.00;2.88;;;17.80;50.40;;;;;;5954112;24;20160;-86
2023/12/06 11:46:58;;;;;;;12.52;2.80;;;17.80;51.00;;;;;;5953722;24;20203;-87
2023/12/06 11:52:00;;;;;;;13.07;3.15;;;17.80;50.60;;;;;;6143008;23;20211;-85
2023/12/06 11:54:27;;;;;;;11.43;2.90;;;17.70;50.90;;;;;;6112814;23;20187;-85
2023/12/06 11:57:15;;;;;;;7.90;2.70;;;17.70;51.30;;;;;;6138150;23;20209;-85
2023/12/06 11:59:44;;;;;;;9.43;3.33;;;17.80;50.70;;;;;;6067573;23;20182;-86
2023/12/06 12:02:22;;;;;;;10.50;2.53;;;17.80;50.80;;;;;;6114239;23;20147;-86
2023/12/06 12:05:15;;;;;;;9.32;2.38;;;17.70;50.90;;;;;;6063931;23;20181;-86
2023/12/06 12:07:55;;;;;;;7.10;2.60;;;17.80;50.50;;;;;;6102648;23;20179;-86
2023/12/06 12:10:23;;;;;;;9.02;2.67;;;17.80;50.50;;;;;;6082522;23;20534;-85
2023/12/06 12:12:56;;;;;;;6.88;2.50;;;17.80;50.30;;;;;;6065365;23;20162;-85
2023/12/06 12:15:25;;;;;;;9.50;2.72;;;17.80;50.50;;;;;;6029887;23;20218;-86
2023/12/06 12:17:56;;;;;;;9.02;2.63;;;17.70;50.70;;;;;;6030799;23;20216;-86
2023/12/06 12:20:26;;;;;;;7.18;2.58;;;17.70;50.80;;;;;;5979543;23;20158;-87
2023/12/06 12:22:52;;;;;;;10.93;3.15;;;17.70;50.40;;;;;;6027129;23;20165;-85
2023/12/06 12:25:22;;;;;;;6.95;2.35;;;17.80;50.60;;;;;;6003816;23;20509;-86
2023/12/06 12:27:57;;;;;;;7.85;2.35;;;17.70;50.40;;;;;;6029727;23;20181;-87
2023/12/06 12:30:36;;;;;;;8.82;2.60;;;17.70;50.70;;;;;;6027590;23;20157;-86
2023/12/06 12:33:09;;;;;;;7.30;2.55;;;17.70;50.20;;;;;;5944684;24;20192;-87
2023/12/06 12:35:51;;;;;;;12.32;2.80;;;17.80;50.10;;;;;;5947034;24;20160;-86
2023/12/06 12:38:39;;;;;;;6.93;2.50;;;17.80;50.50;;;;;;5980130;24;20158;-87
2023/12/06 12:41:14;;;;;;;6.65;2.53;;;17.80;50.40;;;;;;5970493;24;20155;-86
2023/12/06 12:43:54;;;;;;;7.78;2.55;;;17.80;50.50;;;;;;5993758;23;20151;-87
2023/12/06 12:46:35;;;;;;;11.25;2.60;;;17.80;50.80;;;;;;5979338;24;20155;-87
2023/12/06 12:49:31;;;;;;;6.28;2.60;;;17.80;50.10;;;;;;5884104;24;20242;-86
2023/12/06 12:52:33;;;;;;;10.43;2.42;;;17.80;50.00;;;;;;5822522;24;20269;-86
2023/12/06 12:58:28;;;;;;;8.95;2.55;;;17.80;50.30;;;;;;5786946;24;20160;-87
2023/12/06 13:01:21;;;;;;;5.20;2.40;;;17.80;50.40;;;;;;5780538;24;20156;-85
2023/12/06 13:07:12;;;;;;;11.02;3.00;;;17.80;49.80;;;;;;5721256;25;20244;-86
2023/12/06 13:09:54;;;;;;;7.53;2.60;;;17.80;50.10;;;;;;5699888;25;20166;-85
2023/12/06 13:12:47;;;;;;;8.32;2.30;;;17.80;49.80;;;;;;5747487;25;20180;-85
2023/12/06 13:15:45;;;;;;;7.93;2.53;;;17.80;50.10;;;;;;5722316;25;20213;-87
2023/12/06 13:18:53;;;;;;;;;;;;;;;;;;;;;
2023/12/06 13:21:32;;;;;;;6.30;2.03;;;17.80;49.60;;;;;;5764298;24;20161;-85
2023/12/06 13:34:29;;;;;;;;;;;;;;;;;;;;;
2023/12/06 13:36:58;;;;;;;7.25;2.45;;;17.80;49.60;;;;;;5842080;24;20185;-87
2023/12/06 13:39:45;;;;;;;6.30;2.20;;;17.80;50.20;;;;;;5841947;24;20155;-87
2023/12/06 13:42:13;;;;;;;8.13;2.45;;;17.80;50.00;;;;;;5855546;24;20154;-87
2023/12/06 13:44:42;;;;;;;8.25;2.58;;;17.80;49.80;;;;;;5839870;24;20159;-86
2023/12/06 13:47:36;;;;;;;7.75;2.38;;;17.80;50.20;;;;;;5837601;24;20165;-87
2023/12/06 13:50:10;;;;;;;5.35;2.60;;;17.80;50.30;;;;;;5940394;24;20137;-87
2023/12/06 13:52:37;;;;;;;6.75;2.60;;;17.70;50.20;;;;;;5961718;24;20629;-88
2023/12/06 13:55:08;;;;;;;5.28;2.50;;;17.70;50.80;;;;;;5917619;24;20160;-88
2023/12/06 13:57:44;;;;;;;6.75;2.30;;;17.70;50.60;;;;;;5934836;24;20229;-87
2023/12/06 14:00:13;;;;;;;6.07;2.40;;;17.70;50.50;;;;;;5890994;24;20184;-87
2023/12/06 14:02:43;;;;;;;6.22;2.22;;;17.70;51.00;;;;;;5890030;24;20150;-86
2023/12/06 14:05:46;;;;;;;;;;;;;;;;;;;;;
2023/12/06 14:08:16;;;;;;;12.23;2.90;;;17.70;50.30;;;;;;5852724;24;20173;-86
2023/12/06 14:11:17;;;;;;;10.52;2.47;;;17.70;50.80;;;;;;5887546;24;20217;-87
2023/12/06 14:14:01;;;;;;;12.25;3.05;;;17.70;51.00;;;;;;5852387;24;20185;-87
2023/12/06 14:16:27;;;;;;;8.48;2.55;;;17.70;50.50;;;;;;5910304;24;20152;-88
2023/12/06 14:19:24;;;;;;;7.60;2.55;;;17.70;49.80;;;;;;5928803;23;20264;-87
2023/12/06 14:21:54;;;;;;;5.63;2.55;;;17.70;49.90;;;;;;6025322;23;20238;-87
2023/12/06 14:24:31;;;;;;;7.38;2.50;;;17.70;49.50;;;;;;5935036;23;20169;-87
2023/12/06 14:27:20;;;;;;;8.75;2.60;;;17.70;50.20;;;;;;5911421;23;20165;-86
2023/12/06 14:30:01;;;;;;;6.50;2.47;;;17.60;50.30;;;;;;5948909;24;20184;-86
2023/12/06 14:32:42;;;;;;;8.73;2.92;;;17.60;50.60;;;;;;5875853;24;20220;-87
2023/12/06 14:35:11;;;;;;;8.93;2.55;;;17.70;50.20;;;;;;5910370;24;20193;-88
2023/12/06 14:37:45;;;;;;;7.72;2.50;;;17.60;49.80;;;;;;5935679;24;20227;-87
2023/12/06 14:40:20;;;;;;;7.57;2.85;;;17.70;49.90;;;;;;5935851;24;20219;-86
2023/12/06 14:42:50;;;;;;;10.23;2.95;;;17.70;49.70;;;;;;5909237;24;20152;-87
2023/12/06 14:45:32;;;;;;;5.25;2.58;;;17.70;49.00;;;;;;5914646;24;20156;-88
2023/12/06 14:47:59;;;;;;;5.82;2.60;;;17.80;49.50;;;;;;5832633;24;20202;-86
2023/12/06 14:50:27;;;;;;;8.23;2.50;;;17.80;49.90;;;;;;5823584;24;20187;-86
2023/12/06 14:53:17;;;;;;;6.63;2.50;;;17.70;49.80;;;;;;5840124;24;20223;-85
2023/12/06 14:55:56;;;;;;;10.50;2.47;;;17.80;50.90;;;;;;5829818;24;20163;-87
2023/12/06 14:58:25;;;;;;;15.70;2.88;;;17.70;50.90;;;;;;5830736;24;20170;-86
2023/12/06 15:01:03;;;;;;;6.82;2.53;;;17.70;49.60;;;;;;5826709;24;20562;-85
2023/12/06 15:03:38;;;;;;;11.15;2.25;;;17.70;49.60;;;;;;5857004;24;20157;-84
2023/12/06 15:06:50;;;;;;;;;;;;;;;;;;;;;
2023/12/06 15:09:17;;;;;;;11.95;2.30;;;17.60;50.80;;;;;;5826396;24;20612;-86
2023/12/06 15:12:02;;;;;;;;;;;;;;;;;;;;;
2023/12/06 15:14:32;;;;;;;11.20;2.25;;;17.60;50.50;;;;;;5835125;24;20210;-86
2023/12/06 15:17:13;;;;;;;6.75;2.50;;;17.60;50.30;;;;;;5826992;24;20178;-86
2023/12/06 15:20:08;;;;;;;7.03;2.30;;;17.70;50.30;;;;;;5815800;24;20159;-87
2023/12/06 15:23:21;;;;;;;7.97;2.05;;;17.60;51.20;;;;;;5908916;24;20214;-86
2023/12/06 15:25:34;;;;;;;10.73;2.72;;;17.60;51.90;;;;;;5874057;24;20239;-85
2023/12/06 15:28:00;;;;;;;10.20;2.60;;;17.50;52.10;;;;;;5943807;24;20156;-87
2023/12/06 15:30:31;;;;;;;7.13;2.58;;;17.40;52.10;;;;;;5943075;24;20219;-87
2023/12/06 15:33:01;;;;;;;8.57;2.20;;;17.50;51.60;;;;;;5966565;24;20166;-86
2023/12/06 15:35:34;;;;;;;8.18;2.70;;;17.50;52.00;;;;;;5922164;24;20155;-87
2023/12/06 15:38:10;;;;;;;6.03;2.53;;;17.50;50.40;;;;;;5958213;24;20592;-86
2023/12/06 15:40:49;;;;;;;9.45;2.78;;;17.50;50.50;;;;;;5937275;24;20156;-87
2023/12/06 15:43:23;;;;;;;6.93;2.35;;;17.50;50.50;;;;;;5962981;24;20586;-86
2023/12/06 15:46:02;;;;;;;7.28;2.53;;;17.50;50.60;;;;;;5961038;24;20164;-86
2023/12/06 15:48:49;;;;;;;8.10;2.67;;;17.60;50.50;;;;;;5904917;24;20160;-86
2023/12/06 15:51:15;;;;;;;11.18;2.85;;;17.60;50.80;;;;;;5842789;24;20246;-85
2023/12/06 15:53:42;;;;;;;8.52;2.55;;;17.60;50.60;;;;;;5802083;24;20193;-85
2023/12/06 15:56:21;;;;;;;7.00;2.90;;;17.60;50.20;;;;;;5828898;24;20166;-86
2023/12/06 15:58:48;;;;;;;7.63;2.30;;;17.60;49.80;;;;;;5804306;24;20159;-86
2023/12/06 16:01:16;;;;;;;8.30;2.53;;;17.60;50.90;;;;;;5823658;24;20171;-85
2023/12/06 16:03:44;;;;;;;9.95;2.75;;;17.70;50.80;;;;;;5835627;24;20159;-86
2023/12/06 16:06:19;;;;;;;7.35;2.80;;;17.60;49.80;;;;;;5850426;24;20170;-87
2023/12/06 16:08:46;;;;;;;10.70;2.55;;;17.70;49.40;;;;;;5899249;24;20164;-86